Time;durP1;ratioP1;P1;durP2;ratioP2;P2;SDS_P1;SDS_P2;PMS_P1;PMS_P2;Temp;Humidity;BMP_temperature;BMP_pressure;BME280_temperature;BME280_humidity;BME280_pressure;Samples;Min_cycle;Max_cycle;Signal;HPM_P1;HPM_P2
2023/07/31 00:02:15;;;;;;;11.02;3.10;;;22.40;70.00;;;;;;5053220;28;20108;-49
2023/07/31 00:04:41;;;;;;;8.80;2.70;;;22.40;70.00;;;;;;5037831;28;20027;-43
2023/07/31 00:07:07;;;;;;;10.98;3.00;;;22.40;70.10;;;;;;5049655;28;20112;-43
2023/07/31 00:09:33;;;;;;;11.13;3.38;;;22.40;70.10;;;;;;5052560;28;20013;-43
2023/07/31 00:11:59;;;;;;;12.30;3.35;;;22.40;70.30;;;;;;5052840;28;20107;-48
2023/07/31 00:14:25;;;;;;;8.43;3.03;;;22.40;70.20;;;;;;5049547;28;20377;-48
2023/07/31 00:16:51;;;;;;;13.25;3.30;;;22.40;70.30;;;;;;5045129;28;20035;-45
2023/07/31 00:19:17;;;;;;;7.30;3.13;;;22.40;70.30;;;;;;5047694;28;20040;-44
2023/07/31 00:21:44;;;;;;;8.10;3.17;;;22.40;70.40;;;;;;5052879;28;20024;-49
2023/07/31 00:24:10;;;;;;;12.50;3.30;;;22.40;70.40;;;;;;5046838;28;20043;-52
2023/07/31 00:26:35;;;;;;;12.13;3.30;;;22.40;70.40;;;;;;5025555;28;20578;-46
2023/07/31 00:29:01;;;;;;;11.52;2.72;;;22.40;70.40;;;;;;5025306;28;20025;-44
2023/07/31 00:31:27;;;;;;;10.48;3.15;;;22.40;70.50;;;;;;5024945;28;20041;-47
2023/07/31 00:33:53;;;;;;;9.38;3.08;;;22.40;70.60;;;;;;5018019;28;20111;-48
2023/07/31 00:36:19;;;;;;;9.93;3.17;;;22.40;70.60;;;;;;5027936;28;20104;-46
2023/07/31 00:38:45;;;;;;;11.52;3.25;;;22.40;70.50;;;;;;5026033;28;20048;-51
2023/07/31 00:41:10;;;;;;;7.82;2.90;;;22.40;70.70;;;;;;5026151;28;20116;-51
2023/07/31 00:43:36;;;;;;;11.55;3.13;;;22.40;70.70;;;;;;5025082;28;20796;-46
2023/07/31 00:46:02;;;;;;;6.75;2.85;;;22.40;70.70;;;;;;5025243;28;20140;-51
2023/07/31 00:48:28;;;;;;;11.18;3.78;;;22.40;70.70;;;;;;5038697;28;20618;-43
2023/07/31 00:50:55;;;;;;;8.38;3.30;;;22.40;70.80;;;;;;5050807;28;20096;-51
2023/07/31 00:53:21;;;;;;;9.20;2.90;;;22.40;70.90;;;;;;5050907;28;20120;-51
2023/07/31 00:55:48;;;;;;;11.63;2.70;;;22.40;70.90;;;;;;5029488;28;20036;-47
2023/07/31 00:58:14;;;;;;;10.30;3.15;;;22.40;70.90;;;;;;5027576;28;20036;-50
2023/07/31 01:00:39;;;;;;;5.57;2.60;;;22.40;70.90;;;;;;5026355;28;20700;-47
2023/07/31 01:03:05;;;;;;;5.32;2.78;;;22.40;71.00;;;;;;5024317;28;20032;-43
2023/07/31 01:05:45;;;;;;;6.95;2.90;;;22.40;71.00;;;;;;5024519;28;20037;-47
2023/07/31 01:08:28;;;;;;;7.57;3.15;;;22.40;70.90;;;;;;5024604;28;20442;-45
2023/07/31 01:10:59;;;;;;;8.18;3.20;;;22.40;71.00;;;;;;5026135;28;20029;-47
2023/07/31 01:13:25;;;;;;;10.60;3.22;;;22.40;71.00;;;;;;5036257;28;20477;-44
2023/07/31 01:15:51;;;;;;;9.18;2.92;;;22.40;71.10;;;;;;5051470;28;20025;-47
2023/07/31 01:18:16;;;;;;;7.03;3.05;;;22.40;71.10;;;;;;5050447;28;20029;-49
2023/07/31 01:20:46;;;;;;;11.40;3.30;;;22.40;71.10;;;;;;5051664;28;20032;-45
2023/07/31 01:23:20;;;;;;;7.63;3.38;;;22.40;71.20;;;;;;5050404;28;20048;-43
2023/07/31 01:26:16;;;;;;;7.63;3.17;;;22.40;71.20;;;;;;5031083;28;20580;-45
2023/07/31 01:29:14;;;;;;;7.75;2.80;;;22.40;71.70;;;;;;4967323;28;20538;-46
2023/07/31 01:31:43;;;;;;;7.28;3.10;;;22.40;71.10;;;;;;4982475;28;20074;-43
2023/07/31 01:34:11;;;;;;;6.18;2.90;;;22.40;71.30;;;;;;4967221;28;22133;-48
2023/07/31 01:36:37;;;;;;;6.65;3.30;;;22.40;71.30;;;;;;4966821;28;20129;-45
2023/07/31 01:39:03;;;;;;;9.38;3.45;;;22.40;71.30;;;;;;4967321;28;20085;-44
2023/07/31 01:41:30;;;;;;;8.88;3.30;;;22.40;71.30;;;;;;4973144;28;20030;-45
2023/07/31 01:43:56;;;;;;;8.27;3.65;;;22.40;71.30;;;;;;4948916;28;20048;-47
2023/07/31 01:46:23;;;;;;;7.43;3.25;;;22.40;71.30;;;;;;4988043;28;20054;-46
2023/07/31 01:48:49;;;;;;;8.38;3.47;;;22.40;71.30;;;;;;4964919;28;20375;-46
2023/07/31 01:51:14;;;;;;;9.77;3.67;;;22.40;71.30;;;;;;4989782;28;20500;-49
2023/07/31 01:53:40;;;;;;;9.05;3.20;;;22.40;71.40;;;;;;4991245;28;20026;-43
2023/07/31 01:56:07;;;;;;;8.02;3.63;;;22.40;71.30;;;;;;4957350;28;20514;-45
2023/07/31 01:58:33;;;;;;;8.80;3.65;;;22.40;71.30;;;;;;4967783;28;20192;-45
2023/07/31 02:00:59;;;;;;;6.18;3.10;;;22.40;71.30;;;;;;4967630;28;20494;-43
2023/07/31 02:03:26;;;;;;;7.10;3.60;;;22.40;71.40;;;;;;4950791;28;20031;-44
2023/07/31 02:05:54;;;;;;;7.20;3.35;;;22.40;71.30;;;;;;5012005;28;20091;-43
2023/07/31 02:08:20;;;;;;;6.93;3.30;;;22.40;71.40;;;;;;5024069;28;20025;-44
2023/07/31 02:10:46;;;;;;;10.05;3.42;;;22.40;71.40;;;;;;5029330;28;20446;-46
2023/07/31 02:13:12;;;;;;;6.43;3.15;;;22.40;71.40;;;;;;5024321;28;20056;-49
2023/07/31 02:15:37;;;;;;;9.82;4.30;;;22.40;71.40;;;;;;5024180;28;20036;-43
2023/07/31 02:18:03;;;;;;;6.90;2.90;;;22.40;71.40;;;;;;5031181;28;20032;-43
2023/07/31 02:20:34;;;;;;;8.60;3.60;;;22.40;72.00;;;;;;5052562;28;20426;-43
2023/07/31 02:23:02;;;;;;;6.93;3.08;;;22.40;71.40;;;;;;5049837;28;20028;-47
2023/07/31 02:25:27;;;;;;;6.50;2.85;;;22.40;71.50;;;;;;5037486;28;20021;-47
2023/07/31 02:27:53;;;;;;;11.40;3.95;;;22.40;71.50;;;;;;5024033;28;20528;-45
2023/07/31 02:30:19;;;;;;;9.68;3.80;;;22.40;71.50;;;;;;5024372;28;20155;-45
2023/07/31 02:32:45;;;;;;;8.90;3.63;;;22.40;71.40;;;;;;5028816;28;20041;-45
2023/07/31 02:35:15;;;;;;;7.25;3.60;;;22.40;71.50;;;;;;5025664;28;20028;-44
2023/07/31 02:37:41;;;;;;;11.02;3.80;;;22.40;71.60;;;;;;5023985;28;20033;-44
2023/07/31 02:40:08;;;;;;;6.40;3.65;;;22.40;71.50;;;;;;5023493;28;20065;-47
2023/07/31 02:42:34;;;;;;;8.13;3.80;;;22.40;71.50;;;;;;5024168;28;20055;-51
2023/07/31 02:44:59;;;;;;;6.65;3.90;;;22.40;71.60;;;;;;5028261;28;20480;-48
2023/07/31 02:47:26;;;;;;;8.40;4.28;;;22.40;71.60;;;;;;5054664;22;20037;-54
2023/07/31 02:49:52;;;;;;;7.47;3.85;;;22.40;71.70;;;;;;5026188;28;20044;-53
2023/07/31 02:52:17;;;;;;;8.63;3.50;;;22.40;72.80;;;;;;5035858;28;20480;-51
2023/07/31 02:54:43;;;;;;;8.20;3.50;;;22.40;72.00;;;;;;5034168;28;20021;-52
2023/07/31 02:57:09;;;;;;;14.50;3.67;;;22.40;71.70;;;;;;5013374;28;20515;-47
2023/07/31 02:59:35;;;;;;;9.75;3.05;;;22.30;71.30;;;;;;4991317;28;20033;-49
2023/07/31 03:02:00;;;;;;;7.95;3.05;;;22.30;70.80;;;;;;4975335;28;20030;-51
2023/07/31 03:04:26;;;;;;;6.47;2.70;;;22.30;70.40;;;;;;4989297;28;20034;-49
2023/07/31 03:06:52;;;;;;;7.28;3.05;;;22.20;69.80;;;;;;4976024;28;21099;-48
2023/07/31 03:09:18;;;;;;;6.82;2.60;;;22.20;69.50;;;;;;4989079;28;20022;-50
2023/07/31 03:11:44;;;;;;;5.53;2.60;;;22.20;69.30;;;;;;4975972;28;20030;-49
2023/07/31 03:14:10;;;;;;;5.45;2.38;;;22.10;69.30;;;;;;4988677;28;20022;-46
2023/07/31 03:16:36;;;;;;;7.05;2.45;;;22.10;68.70;;;;;;4975748;28;20034;-51
2023/07/31 03:19:02;;;;;;;8.20;2.75;;;22.10;68.70;;;;;;5014224;28;20033;-48
2023/07/31 03:21:28;;;;;;;7.80;2.50;;;22.10;68.70;;;;;;5008260;28;20034;-50
2023/07/31 03:23:54;;;;;;;5.95;2.30;;;22.10;68.30;;;;;;4996831;28;20030;-50
2023/07/31 03:26:19;;;;;;;5.75;2.35;;;22.10;68.30;;;;;;4982692;28;20452;-50
2023/07/31 03:28:45;;;;;;;4.82;2.17;;;22.10;68.30;;;;;;4989688;28;20504;-50
2023/07/31 03:31:11;;;;;;;7.63;2.58;;;22.10;68.30;;;;;;4990365;28;20138;-50
2023/07/31 03:33:37;;;;;;;9.13;2.35;;;22.10;68.10;;;;;;4975242;28;20034;-48
2023/07/31 03:36:03;;;;;;;7.00;2.50;;;22.00;68.10;;;;;;4989298;28;20754;-49
2023/07/31 03:38:30;;;;;;;7.30;2.50;;;22.00;68.10;;;;;;4988897;28;20277;-48
2023/07/31 03:40:55;;;;;;;8.25;2.53;;;22.00;68.50;;;;;;5001801;28;20465;-51
2023/07/31 03:43:21;;;;;;;7.25;2.15;;;22.00;68.30;;;;;;4988694;28;20068;-52
2023/07/31 03:45:47;;;;;;;5.13;2.10;;;22.10;68.50;;;;;;4987818;28;20038;-51
2023/07/31 03:48:15;;;;;;;8.43;2.25;;;22.10;68.20;;;;;;4994772;28;20045;-51
2023/07/31 03:50:41;;;;;;;6.13;2.30;;;22.00;68.30;;;;;;4995409;28;20026;-49
2023/07/31 03:53:06;;;;;;;6.88;2.05;;;22.00;68.40;;;;;;4988525;28;20023;-50
2023/07/31 03:55:32;;;;;;;6.32;2.25;;;22.00;68.10;;;;;;4992065;28;20045;-50
2023/07/31 03:57:59;;;;;;;7.90;2.33;;;22.00;68.30;;;;;;4988149;28;20056;-52
2023/07/31 04:00:27;;;;;;;9.25;2.42;;;22.00;68.10;;;;;;4988891;28;20479;-55
2023/07/31 04:02:52;;;;;;;7.10;2.40;;;22.00;68.50;;;;;;4988669;28;20026;-51
2023/07/31 04:05:18;;;;;;;8.02;2.58;;;22.00;68.50;;;;;;4990687;28;20425;-55
2023/07/31 04:07:44;;;;;;;5.40;2.40;;;22.00;68.30;;;;;;4988506;28;20028;-52
2023/07/31 04:10:10;;;;;;;6.00;2.50;;;22.00;68.10;;;;;;4989153;28;20030;-51
2023/07/31 04:12:36;;;;;;;6.38;2.33;;;22.00;68.10;;;;;;4988700;28;20789;-50
2023/07/31 04:15:02;;;;;;;7.78;2.40;;;22.00;68.00;;;;;;4987691;28;20027;-49
2023/07/31 04:17:29;;;;;;;4.85;2.58;;;22.00;67.90;;;;;;4987938;28;20057;-52
2023/07/31 04:19:55;;;;;;;7.60;2.63;;;22.00;67.80;;;;;;4987464;28;20099;-55
2023/07/31 04:22:21;;;;;;;7.45;2.60;;;22.00;68.00;;;;;;4989490;28;20421;-52
2023/07/31 04:24:47;;;;;;;8.13;2.50;;;22.00;67.70;;;;;;4987953;28;20062;-50
2023/07/31 04:27:13;;;;;;;7.95;2.78;;;22.00;67.60;;;;;;4988935;28;20026;-51
2023/07/31 04:29:39;;;;;;;6.95;2.97;;;21.90;67.60;;;;;;4989055;28;20022;-51
2023/07/31 04:32:05;;;;;;;9.77;2.40;;;21.90;67.40;;;;;;5003303;28;20021;-49
2023/07/31 04:34:31;;;;;;;8.10;2.50;;;21.90;67.60;;;;;;5012415;28;20033;-52
2023/07/31 04:36:57;;;;;;;7.22;2.47;;;21.90;67.80;;;;;;5000849;28;20037;-53
2023/07/31 04:39:23;;;;;;;7.55;2.80;;;21.90;67.40;;;;;;5001129;28;20042;-49
2023/07/31 04:41:48;;;;;;;6.85;2.45;;;21.90;67.90;;;;;;5019048;28;20466;-52
2023/07/31 04:44:14;;;;;;;6.47;2.80;;;21.90;67.20;;;;;;5012393;28;20088;-50
2023/07/31 04:46:40;;;;;;;6.25;2.80;;;21.90;67.10;;;;;;5012205;28;20065;-50
2023/07/31 04:49:06;;;;;;;7.40;3.30;;;21.90;67.40;;;;;;5012438;28;20038;-48
2023/07/31 04:51:31;;;;;;;10.80;3.30;;;21.90;67.60;;;;;;5012428;28;20026;-53
2023/07/31 04:53:57;;;;;;;9.95;3.70;;;21.90;67.40;;;;;;5012511;28;20026;-54
2023/07/31 04:56:23;;;;;;;10.27;3.75;;;21.90;67.40;;;;;;5012011;28;20105;-54
2023/07/31 04:58:49;;;;;;;7.35;3.33;;;21.90;67.40;;;;;;5012382;28;20045;-53
2023/07/31 05:01:15;;;;;;;8.25;3.03;;;21.90;67.50;;;;;;5012175;28;20030;-55
2023/07/31 05:03:40;;;;;;;8.50;3.10;;;21.90;67.50;;;;;;5012352;28;20057;-52
2023/07/31 05:06:06;;;;;;;8.15;3.28;;;21.90;67.60;;;;;;5011387;28;20165;-55
2023/07/31 05:08:33;;;;;;;10.30;3.10;;;21.90;67.60;;;;;;5011997;28;20033;-51
2023/07/31 05:10:59;;;;;;;6.53;3.08;;;21.90;67.70;;;;;;5002417;28;20037;-53
2023/07/31 05:13:24;;;;;;;10.35;3.40;;;21.90;67.60;;;;;;4988339;28;20734;-54
2023/07/31 05:15:50;;;;;;;12.40;3.28;;;21.90;67.70;;;;;;4968905;28;20068;-50
2023/07/31 05:18:16;;;;;;;11.77;3.20;;;21.80;67.80;;;;;;4987259;28;20037;-54
2023/07/31 05:20:42;;;;;;;7.60;2.80;;;21.80;68.00;;;;;;4987068;28;20022;-53
2023/07/31 05:23:08;;;;;;;9.65;3.22;;;21.80;68.00;;;;;;4991753;28;20041;-54
2023/07/31 05:25:34;;;;;;;12.60;3.00;;;21.90;68.10;;;;;;5011958;28;20022;-51
2023/07/31 05:28:00;;;;;;;6.25;2.33;;;21.80;68.20;;;;;;5008198;28;20033;-53
2023/07/31 05:30:26;;;;;;;8.93;3.00;;;21.80;68.30;;;;;;4988331;28;20083;-53
2023/07/31 05:32:52;;;;;;;8.02;3.20;;;21.80;68.20;;;;;;4989778;28;20025;-55
2023/07/31 05:35:18;;;;;;;8.32;3.15;;;21.80;68.30;;;;;;4986355;28;20444;-54
2023/07/31 05:37:43;;;;;;;6.65;2.65;;;21.80;68.30;;;;;;4988398;28;20033;-49
2023/07/31 05:40:09;;;;;;;8.05;2.78;;;21.80;68.30;;;;;;4988395;28;20671;-49
2023/07/31 05:42:37;;;;;;;8.32;3.25;;;21.80;68.50;;;;;;4987421;28;20037;-53
2023/07/31 05:45:04;;;;;;;8.85;2.75;;;21.80;68.50;;;;;;4987665;28;20062;-52
2023/07/31 05:47:30;;;;;;;10.05;2.72;;;21.80;68.60;;;;;;4995532;28;20038;-51
2023/07/31 05:49:56;;;;;;;8.35;2.47;;;21.80;68.50;;;;;;5000139;28;20033;-53
2023/07/31 05:52:22;;;;;;;9.23;2.47;;;21.80;68.50;;;;;;4987085;28;20092;-54
2023/07/31 05:54:48;;;;;;;10.15;2.80;;;21.80;68.60;;;;;;5008674;28;20195;-55
2023/07/31 05:57:13;;;;;;;8.50;2.97;;;21.80;68.60;;;;;;5026684;28;20026;-55
2023/07/31 05:59:39;;;;;;;7.70;3.22;;;21.80;68.70;;;;;;4993989;28;20037;-52
2023/07/31 06:02:06;;;;;;;7.07;3.35;;;21.80;68.60;;;;;;4987809;28;20157;-55
2023/07/31 06:04:31;;;;;;;7.38;2.90;;;21.80;68.70;;;;;;4994390;28;20032;-53
2023/07/31 06:06:57;;;;;;;10.90;2.90;;;21.80;68.60;;;;;;4985621;28;20042;-51
2023/07/31 06:09:23;;;;;;;7.65;3.22;;;21.70;68.60;;;;;;4987840;28;20126;-55
2023/07/31 06:11:49;;;;;;;9.07;3.58;;;21.80;68.70;;;;;;4987273;28;20524;-54
2023/07/31 06:14:15;;;;;;;8.52;3.75;;;21.70;68.70;;;;;;4987404;28;20039;-54
2023/07/31 06:16:41;;;;;;;7.22;3.50;;;21.70;68.80;;;;;;4987569;28;20484;-51
2023/07/31 06:19:07;;;;;;;11.02;3.45;;;21.70;68.80;;;;;;4997024;28;20412;-50
2023/07/31 06:21:33;;;;;;;10.18;3.30;;;21.70;69.00;;;;;;4991329;28;20026;-53
2023/07/31 06:23:59;;;;;;;11.60;3.75;;;21.70;68.90;;;;;;5010574;28;20021;-53
2023/07/31 06:26:25;;;;;;;8.90;4.07;;;21.70;68.80;;;;;;5014478;28;20160;-54
2023/07/31 06:28:50;;;;;;;14.10;3.60;;;21.70;68.80;;;;;;5007586;28;20045;-54
2023/07/31 06:31:20;;;;;;;10.13;4.03;;;21.70;68.90;;;;;;4993743;28;20092;-53
2023/07/31 06:33:46;;;;;;;8.85;3.47;;;21.70;68.90;;;;;;4992035;28;20026;-50
2023/07/31 06:36:11;;;;;;;5.68;2.80;;;21.70;68.90;;;;;;4990226;28;20042;-51
2023/07/31 06:38:37;;;;;;;8.98;3.10;;;21.70;68.90;;;;;;4989785;28;20033;-54
2023/07/31 06:41:03;;;;;;;7.75;2.63;;;21.70;69.50;;;;;;4990161;28;20030;-53
2023/07/31 06:43:29;;;;;;;8.80;3.03;;;21.70;69.10;;;;;;4995810;28;20164;-53
2023/07/31 06:45:55;;;;;;;6.78;2.63;;;21.70;69.10;;;;;;4991336;28;20615;-54
2023/07/31 06:48:21;;;;;;;7.53;2.75;;;21.70;69.20;;;;;;4997440;28;20056;-55
2023/07/31 06:50:47;;;;;;;8.07;2.63;;;21.60;69.30;;;;;;4998272;28;22036;-51
2023/07/31 06:53:12;;;;;;;10.90;2.80;;;21.70;69.40;;;;;;4990438;28;20113;-51
2023/07/31 06:55:38;;;;;;;8.77;2.72;;;21.70;69.30;;;;;;4995387;28;20057;-53
2023/07/31 06:58:04;;;;;;;8.70;2.22;;;21.70;69.40;;;;;;5011972;28;20022;-54
2023/07/31 07:00:30;;;;;;;11.13;3.10;;;21.70;69.50;;;;;;5014406;28;20030;-55
2023/07/31 07:02:56;;;;;;;5.13;2.25;;;21.70;69.40;;;;;;4998468;28;20029;-55
2023/07/31 07:05:22;;;;;;;6.53;2.53;;;21.70;69.30;;;;;;4993753;28;20026;-51
2023/07/31 07:07:50;;;;;;;6.45;2.67;;;21.70;69.40;;;;;;4989288;28;20033;-51
2023/07/31 07:10:16;;;;;;;9.75;3.83;;;21.70;69.30;;;;;;4988798;28;20026;-51
2023/07/31 07:12:41;;;;;;;7.65;3.13;;;21.70;69.30;;;;;;4990764;28;20049;-51
2023/07/31 07:15:08;;;;;;;9.70;2.90;;;21.70;69.30;;;;;;4996178;28;20362;-51
2023/07/31 07:17:34;;;;;;;7.32;3.03;;;21.70;69.40;;;;;;4989113;28;20030;-54
2023/07/31 07:20:00;;;;;;;10.40;2.85;;;21.70;69.40;;;;;;4996567;28;20084;-50
2023/07/31 07:22:27;;;;;;;6.03;2.40;;;21.70;70.00;;;;;;4993759;28;20460;-55
2023/07/31 07:24:53;;;;;;;6.78;2.80;;;21.70;69.40;;;;;;4989359;28;20030;-53
2023/07/31 07:27:19;;;;;;;6.97;2.95;;;21.70;69.30;;;;;;4989893;28;20033;-48
2023/07/31 07:29:46;;;;;;;9.45;2.83;;;21.70;69.40;;;;;;5005664;28;20076;-54
2023/07/31 07:32:12;;;;;;;8.35;2.30;;;21.70;69.50;;;;;;5014095;28;20495;-54
2023/07/31 07:34:38;;;;;;;7.78;2.53;;;21.70;69.50;;;;;;5001745;28;20657;-54
2023/07/31 07:37:04;;;;;;;13.00;2.70;;;21.70;69.60;;;;;;4992202;28;20053;-52
2023/07/31 07:39:29;;;;;;;7.00;2.58;;;21.60;69.70;;;;;;4993914;28;20132;-55
2023/07/31 07:41:55;;;;;;;6.85;2.30;;;21.70;69.70;;;;;;4990509;28;20255;-53
2023/07/31 07:44:21;;;;;;;11.35;2.90;;;21.60;69.70;;;;;;4990894;28;20022;-52
2023/07/31 07:46:47;;;;;;;8.32;2.35;;;21.60;69.80;;;;;;4993191;28;20404;-51
2023/07/31 07:49:13;;;;;;;8.38;2.50;;;21.60;69.70;;;;;;5003981;28;20038;-50
2023/07/31 07:51:38;;;;;;;5.93;2.40;;;21.60;69.80;;;;;;4989018;28;20030;-50
2023/07/31 07:54:04;;;;;;;8.43;2.58;;;21.60;69.90;;;;;;4994676;28;20063;-50
2023/07/31 07:56:30;;;;;;;9.88;2.83;;;21.60;69.90;;;;;;4995778;28;20030;-52
2023/07/31 07:58:56;;;;;;;8.20;2.40;;;21.60;69.80;;;;;;4991532;28;20032;-55
2023/07/31 08:01:22;;;;;;;3.80;2.25;;;21.60;70.00;;;;;;5016216;28;20104;-55
2023/07/31 08:03:48;;;;;;;6.45;2.55;;;21.60;70.10;;;;;;5013659;28;20037;-49
2023/07/31 08:06:14;;;;;;;3.92;1.95;;;21.60;70.10;;;;;;4996568;28;20033;-50
2023/07/31 08:08:40;;;;;;;7.97;2.42;;;21.60;70.30;;;;;;4989628;28;20482;-50
2023/07/31 08:11:06;;;;;;;5.82;2.10;;;21.60;70.20;;;;;;4991227;28;20405;-48
2023/07/31 08:13:32;;;;;;;4.40;2.13;;;21.60;70.20;;;;;;4991340;28;20058;-51
2023/07/31 08:15:58;;;;;;;5.18;2.25;;;21.60;70.20;;;;;;4989026;28;20029;-53
2023/07/31 08:18:24;;;;;;;4.43;2.20;;;21.60;70.40;;;;;;4995300;28;20418;-53
2023/07/31 08:20:49;;;;;;;4.85;1.98;;;21.60;70.40;;;;;;4990841;28;20123;-52
2023/07/31 08:23:15;;;;;;;5.15;2.10;;;21.60;70.40;;;;;;4993875;28;20029;-49
2023/07/31 08:25:42;;;;;;;5.85;2.08;;;21.60;70.40;;;;;;4987890;28;20489;-50
2023/07/31 08:28:07;;;;;;;5.28;1.80;;;21.50;70.50;;;;;;4988658;28;20023;-53
2023/07/31 08:30:34;;;;;;;4.55;2.15;;;21.60;70.50;;;;;;4988017;28;20466;-47
2023/07/31 08:33:00;;;;;;;5.15;1.88;;;21.60;70.70;;;;;;4994703;28;20053;-49
2023/07/31 08:35:28;;;;;;;4.20;1.65;;;21.60;70.80;;;;;;5013290;28;20064;-48
2023/07/31 08:37:54;;;;;;;4.80;2.10;;;21.60;71.00;;;;;;5009817;28;20116;-53
2023/07/31 08:40:21;;;;;;;6.57;1.98;;;21.60;71.10;;;;;;4990880;28;20023;-51
2023/07/31 08:42:49;;;;;;;4.50;1.80;;;21.50;71.10;;;;;;5004136;28;20030;-49
2023/07/31 08:45:16;;;;;;;7.47;2.17;;;21.50;70.90;;;;;;5012189;28;20034;-52
2023/07/31 08:47:47;;;;;;;3.67;1.90;;;21.50;71.00;;;;;;5012118;28;20049;-51
2023/07/31 08:50:15;;;;;;;4.93;2.10;;;21.60;71.10;;;;;;5009885;28;20022;-54
2023/07/31 08:52:41;;;;;;;5.05;2.10;;;21.50;71.10;;;;;;5012589;28;20021;-51
2023/07/31 08:55:07;;;;;;;4.53;2.20;;;21.50;71.80;;;;;;5012367;28;20030;-51
2023/07/31 08:57:36;;;;;;;7.05;1.90;;;21.50;71.20;;;;;;4994895;28;20045;-54
2023/07/31 09:00:06;;;;;;;4.53;2.28;;;21.50;71.30;;;;;;5012125;28;20033;-54
2023/07/31 09:03:04;;;;;;;4.30;1.70;;;21.50;71.30;;;;;;5012088;28;20137;-52
2023/07/31 09:05:31;;;;;;;4.05;1.80;;;21.50;71.20;;;;;;5012007;28;20033;-54
2023/07/31 09:07:57;;;;;;;3.83;2.03;;;21.60;71.20;;;;;;5012451;28;20076;-52
2023/07/31 09:10:24;;;;;;;4.03;1.75;;;21.60;71.10;;;;;;5012154;28;20099;-51
2023/07/31 09:12:52;;;;;;;5.50;2.03;;;21.60;71.00;;;;;;5010257;28;20030;-52
2023/07/31 09:15:18;;;;;;;6.90;2.00;;;21.60;71.00;;;;;;5011968;28;20037;-54
2023/07/31 09:17:44;;;;;;;8.32;2.28;;;21.60;71.00;;;;;;5012430;28;20037;-54
2023/07/31 09:20:19;;;;;;;6.38;1.80;;;21.60;71.30;;;;;;5012436;28;20022;-52
2023/07/31 09:22:45;;;;;;;5.20;2.42;;;21.60;71.00;;;;;;5012571;28;20388;-50
2023/07/31 09:25:16;;;;;;;7.60;2.30;;;21.60;71.20;;;;;;5011902;28;20088;-52
2023/07/31 09:27:47;;;;;;;9.52;2.72;;;21.60;71.00;;;;;;5012123;28;20100;-52
2023/07/31 09:30:14;;;;;;;15.32;2.92;;;21.70;71.10;;;;;;5011511;28;20018;-53
2023/07/31 09:32:40;;;;;;;16.30;3.45;;;21.60;71.90;;;;;;5014121;28;20029;-53
2023/07/31 09:35:33;;;;;;;14.18;3.28;;;21.70;71.50;;;;;;5011619;28;20033;-47
2023/07/31 09:38:00;;;;;;;16.58;3.33;;;21.80;71.20;;;;;;5002890;28;20037;-49
2023/07/31 09:40:31;;;;;;;14.38;2.70;;;21.80;71.50;;;;;;5012571;28;20021;-48
2023/07/31 09:43:34;;;;;;;15.68;2.67;;;21.80;71.10;;;;;;5006497;28;20026;-50
2023/07/31 09:45:59;;;;;;;15.07;3.50;;;21.90;72.70;;;;;;5007761;28;20034;-44
2023/07/31 09:48:30;;;;;;;9.98;2.90;;;22.00;73.50;;;;;;5018385;28;20072;-50
2023/07/31 09:50:56;;;;;;;12.55;3.58;;;22.00;71.60;;;;;;5007509;28;20026;-46
2023/07/31 09:53:29;;;;;;;19.50;4.18;;;22.00;72.70;;;;;;5011466;28;20504;-45
2023/07/31 09:55:58;;;;;;;16.40;3.70;;;22.00;72.50;;;;;;5010506;28;20106;-45
2023/07/31 09:58:25;;;;;;;13.23;3.30;;;22.00;72.70;;;;;;5019493;28;20061;-48
2023/07/31 10:00:51;;;;;;;16.02;3.47;;;22.00;72.40;;;;;;5011637;28;20038;-46
2023/07/31 10:03:17;;;;;;;10.68;2.75;;;22.00;72.40;;;;;;5011189;28;20025;-49
2023/07/31 10:05:49;;;;;;;9.73;3.10;;;22.00;72.60;;;;;;5011022;28;20036;-46
2023/07/31 10:08:16;;;;;;;16.83;2.80;;;22.00;72.40;;;;;;5012276;28;20381;-46
2023/07/31 10:10:46;;;;;;;10.10;3.15;;;22.00;72.40;;;;;;5004804;28;20099;-49
2023/07/31 10:13:12;;;;;;;14.73;2.90;;;22.00;72.50;;;;;;5019737;28;20056;-50
2023/07/31 10:15:40;;;;;;;19.60;3.17;;;22.00;72.50;;;;;;4995780;28;20030;-44
2023/07/31 10:18:07;;;;;;;14.93;3.00;;;22.00;72.50;;;;;;5013358;28;20553;-48
2023/07/31 10:20:33;;;;;;;9.10;2.90;;;22.00;72.30;;;;;;5018411;28;20032;-48
2023/07/31 10:22:59;;;;;;;12.77;2.85;;;22.00;72.40;;;;;;5021535;28;20400;-45
2023/07/31 10:25:30;;;;;;;11.73;3.13;;;22.00;72.20;;;;;;4994283;28;20018;-47
2023/07/31 10:27:57;;;;;;;15.10;2.58;;;22.00;72.10;;;;;;5017511;28;20594;-46
2023/07/31 10:30:29;;;;;;;11.35;3.30;;;22.00;72.10;;;;;;5018026;28;20028;-47
2023/07/31 10:32:55;;;;;;;13.23;3.00;;;22.00;72.30;;;;;;5017931;28;20060;-48
2023/07/31 10:35:24;;;;;;;12.50;2.60;;;22.00;72.70;;;;;;4999944;28;20033;-44
2023/07/31 10:37:51;;;;;;;18.38;3.17;;;22.00;72.10;;;;;;5021693;28;20069;-46
2023/07/31 10:40:22;;;;;;;24.38;3.08;;;22.00;72.00;;;;;;5020783;28;20037;-46
2023/07/31 10:42:49;;;;;;;12.95;3.40;;;22.10;72.10;;;;;;5023315;28;20060;-46
2023/07/31 10:45:42;;;;;;;21.80;4.50;;;22.20;72.00;;;;;;5013314;28;20021;-48
2023/07/31 10:48:17;;;;;;;34.92;5.38;;;22.20;72.20;;;;;;5019225;28;20041;-47
2023/07/31 10:50:51;;;;;;;25.52;5.25;;;22.20;71.90;;;;;;5009480;28;20033;-52
2023/07/31 10:53:31;;;;;;;25.60;4.63;;;22.10;72.20;;;;;;5020785;28;20056;-51
2023/07/31 10:56:02;;;;;;;21.25;5.28;;;22.10;72.60;;;;;;5012460;28;20041;-50
2023/07/31 10:58:27;;;;;;;18.80;4.45;;;22.10;72.30;;;;;;5021913;28;20116;-51
2023/07/31 11:00:58;;;;;;;14.65;4.60;;;22.10;72.50;;;;;;5022930;28;20108;-54
2023/07/31 11:03:48;;;;;;;19.40;4.88;;;22.10;72.40;;;;;;5017979;28;20087;-52
2023/07/31 11:06:14;;;;;;;;;;;22.10;72.30;;;;;;5022791;28;20029;-53
2023/07/31 11:08:45;;;;;;;13.35;4.15;;;22.00;72.20;;;;;;5025338;28;19951;-50
2023/07/31 11:11:13;;;;;;;10.95;4.20;;;22.00;71.90;;;;;;5019257;28;20025;-54
2023/07/31 11:13:50;;;;;;;17.55;4.18;;;22.00;72.00;;;;;;5024042;28;20099;-54
2023/07/31 11:16:17;;;;;;;11.25;3.78;;;22.00;72.10;;;;;;5026799;28;20065;-54
2023/07/31 11:18:45;;;;;;;12.25;3.72;;;22.00;72.10;;;;;;5018561;28;20492;-56
2023/07/31 11:21:18;;;;;;;11.43;3.67;;;22.00;72.10;;;;;;4998087;28;20038;-55
2023/07/31 11:23:52;;;;;;;14.82;3.92;;;22.10;71.90;;;;;;5022370;28;20416;-53
2023/07/31 11:26:18;;;;;;;16.20;4.00;;;22.00;71.90;;;;;;5018936;28;20116;-55
2023/07/31 11:28:47;;;;;;;16.15;4.10;;;22.10;72.60;;;;;;5016785;28;20482;-55
2023/07/31 11:31:13;;;;;;;15.17;4.80;;;22.00;71.90;;;;;;5024173;28;20037;-52
2023/07/31 11:33:39;;;;;;;15.57;4.35;;;22.00;71.80;;;;;;5024932;28;20276;-50
2023/07/31 11:36:05;;;;;;;10.90;3.67;;;22.10;71.80;;;;;;5025000;28;20045;-52
2023/07/31 11:38:33;;;;;;;19.00;4.13;;;22.00;71.70;;;;;;5020574;28;20115;-52
2023/07/31 11:41:03;;;;;;;18.58;4.10;;;22.00;71.70;;;;;;5028438;28;20052;-55
2023/07/31 11:43:29;;;;;;;13.82;4.03;;;22.10;72.20;;;;;;4991676;28;20100;-53
2023/07/31 11:45:57;;;;;;;16.30;4.30;;;22.10;71.70;;;;;;5018637;28;20041;-54
2023/07/31 11:48:29;;;;;;;12.05;3.33;;;22.10;71.50;;;;;;5019485;28;20045;-53
2023/07/31 11:50:58;;;;;;;21.30;4.50;;;22.10;71.60;;;;;;5026486;28;20643;-51
2023/07/31 11:53:27;;;;;;;12.73;3.88;;;22.10;71.40;;;;;;5024624;28;20029;-52
2023/07/31 11:55:53;;;;;;;20.10;4.85;;;22.10;71.30;;;;;;5013729;28;20030;-52
2023/07/31 11:58:20;;;;;;;17.77;4.80;;;22.10;72.20;;;;;;5027866;28;20033;-55
2023/07/31 12:00:46;;;;;;;24.10;4.57;;;22.10;72.10;;;;;;5023335;28;20112;-55
2023/07/31 12:03:12;;;;;;;17.50;4.65;;;22.20;72.40;;;;;;5026851;28;20807;-53
2023/07/31 12:05:38;;;;;;;22.45;4.15;;;22.30;72.80;;;;;;5020499;28;20061;-55
2023/07/31 12:08:11;;;;;;;15.98;4.25;;;22.30;71.90;;;;;;5004859;28;20025;-51
2023/07/31 12:10:37;;;;;;;20.23;3.97;;;22.30;72.30;;;;;;5017842;28;20559;-55
2023/07/31 12:13:10;;;;;;;16.45;4.20;;;22.30;73.70;;;;;;5019342;28;20644;-53
2023/07/31 12:15:44;;;;;;;17.45;4.85;;;22.30;72.90;;;;;;5019929;28;20264;-53
2023/07/31 12:18:14;;;;;;;17.33;4.38;;;22.30;72.90;;;;;;5023839;28;20104;-55
2023/07/31 12:20:45;;;;;;;22.27;4.90;;;22.30;72.40;;;;;;5017613;28;20084;-52
2023/07/31 12:23:27;;;;;;;19.50;4.38;;;22.30;72.90;;;;;;5020164;28;20025;-54
2023/07/31 12:26:11;;;;;;;10.27;4.00;;;22.40;72.40;;;;;;5018189;28;20433;-51
2023/07/31 12:28:48;;;;;;;17.73;4.25;;;22.40;71.70;;;;;;5020230;28;20030;-51
2023/07/31 12:31:17;;;;;;;10.60;3.80;;;22.30;70.40;;;;;;5023501;28;20416;-54
2023/07/31 12:33:44;;;;;;;12.85;3.67;;;22.30;70.10;;;;;;5020892;28;20028;-54
2023/07/31 12:36:15;;;;;;;10.70;3.92;;;22.20;70.10;;;;;;5026081;28;20033;-54
2023/07/31 12:38:41;;;;;;;11.88;3.92;;;22.20;70.50;;;;;;4999035;28;20029;-54
2023/07/31 12:41:07;;;;;;;12.25;4.20;;;22.10;70.00;;;;;;5022610;28;20032;-54
2023/07/31 12:43:34;;;;;;;15.35;4.13;;;22.10;70.20;;;;;;5023601;28;20030;-53
2023/07/31 12:46:00;;;;;;;12.60;4.00;;;22.10;70.50;;;;;;5014457;28;20112;-49